Arnett, West Virginia
Current Conditions -  °F | °C
As of 5:51 AM on Sunday 23 Nov 2014 (Local Time) from KBKW Reporting Station
Clear Clear  
Wind Chill: 38°   Ceiling: Unl
Heat Index: 43°   Visibility: 10mi
Dew Point: 21°   Wind: 8mph
Humidity: 42%   Direction: 140°SE
Pressure: 30.16"   Gusts: NA
Location:  37.83°N, 81.43°W
Report Text: KBKW 231051Z AUTO 14007KT 10SM CLR 06/M06 A3016 RMK AO2 SLP219 T00611061
Loading
Personal Weather Stations






























Interactive Weather Map New forecast layout! Learn more

10-Day Weather Forecast

Advertisements
Track Severe Weather on mobile